Canavieiras, Brazil

10:33 PM BRT on August 23, 2016 (GMT -0300)
Porto Seguro | | Change Station

Elev 167 ft 16.44 °S, 39.08 °W | Updated 33 minutes ago

Mostly Cloudy
Mostly Cloudy
70 °F
Feels Like 70 °F
N
8
Wind Variable Wind from South

Today
High -- | Low -- °F
--% Chance of Precip.
Yesterday
High -- | Low -- °F
Precip. -- in
Pressure 30.18 in
Visibility 5.0 miles
Clouds Mostly Cloudy 600 ft
Mostly Cloudy 2000 ft
Mostly Cloudy 7000 ft
Dew Point 68 °F
Humidity 94%
Rainfall 0.00 in
Snow Depth Not available.
5:47 AM 5:29 PM
Waning Gibbous, 62% visible
METAR SBPS 240100Z 18007KT 8000 VCSH BKN006 BKN020 BKN070 21/20 Q1022
Pressure 30.18 in
Visibility 5.0 miles
Clouds Mostly Cloudy 600 ft
Mostly Cloudy 2000 ft
Mostly Cloudy 7000 ft
Dew Point 68 °F
Humidity 94%
Rainfall 0.00 in
Snow Depth Not available.
5:47 AM 5:29 PM
Waning Gibbous, 62% visible
METAR SBPS 240100Z 18007KT 8000 VCSH BKN006 BKN020 BKN070 21/20 Q1022

10-Day Weather Forecast

No radar image for this location.
×

Almanac

Astronomy

Aug. 23, 2016 Rise Set
Actual Time
Civil Twilight
Nautical Twilight
Astronomical Twilight
Moon
Length of Visible Light
Length of Day
Tomorrow will be .
, % of the Moon is Illuminated

Today's Extremes

Country Highs Country Lows

Community

WunderPhotos

Upload Photos

1,934,517 photos uploaded!

WunderBlog® & News

Nearby

Air Quality

  Air Quality AQ Index Pollutant
Not available.

Snow Depth

Station Depth Elevation

Earthquake Activity

City Distance Mag. Time & Date
Minimum magnitude displayed is 2.5.

Coastal Water Temperatures

Place Temperature

Stations

Nearby Weather Stations

Station Location Temp. Windchill Dew Point Humidity Wind Precip. Elev Updated Type